createdAt,value
2019-02-08T00:02:28.775Z,97524.52
2019-02-08T00:07:25.121Z,97521.83
2019-02-08T00:12:21.441Z,97528.38
2019-02-08T00:17:20.955Z,97525.83
2019-02-08T00:22:23.105Z,97522.73
2019-02-08T00:27:21.343Z,97511.38
2019-02-08T00:32:20.122Z,97512.67
2019-02-08T00:37:16.570Z,97517.92
2019-02-08T00:42:19.962Z,97513.84
2019-02-08T00:47:16.980Z,97516.20
2019-02-08T00:52:13.250Z,97511.03
2019-02-08T00:57:09.409Z,97512.75
2019-02-08T01:02:07.010Z,97520.39
2019-02-08T01:07:03.285Z,97534.86
2019-02-08T01:11:59.731Z,97534.07
2019-02-08T01:16:55.938Z,97526.72
2019-02-08T01:21:52.089Z,97531.86
2019-02-08T01:26:51.908Z,97524.95
2019-02-08T01:31:48.190Z,97532.03
2019-02-08T01:36:44.981Z,97532.16
2019-02-08T01:41:45.779Z,97533.39
2019-02-08T01:46:41.784Z,97539.63
2019-02-08T01:51:37.945Z,97530.61
2019-02-08T01:56:33.955Z,97526.84
2019-02-08T02:01:32.078Z,97525.17
2019-02-08T02:06:31.268Z,97526.69
2019-02-08T02:11:28.610Z,97519.56
2019-02-08T02:16:30.306Z,97533.31
2019-02-08T02:21:31.059Z,97534.77
2019-02-08T02:26:29.840Z,97543.42
2019-02-08T02:31:26.074Z,97551.12
2019-02-08T02:36:22.427Z,97547.11
2019-02-08T02:41:20.498Z,97544.66
2019-02-08T02:46:18.937Z,97550.82
2019-02-08T02:51:16.169Z,97546.23
2019-02-08T02:56:12.545Z,97550.39
2019-02-08T03:01:11.951Z,97529.52
2019-02-08T03:06:10.636Z,97532.49
2019-02-08T03:11:14.047Z,97536.47
2019-02-08T03:16:11.703Z,97527.45
2019-02-08T03:21:09.748Z,97527.72
2019-02-08T03:26:09.147Z,97537.54
2019-02-08T03:31:09.091Z,97533.61
2019-02-08T03:36:05.995Z,97525.14
2019-02-08T03:41:02.073Z,97521.72
2019-02-08T03:45:58.213Z,97536.63
2019-02-08T03:50:54.255Z,97539.11
2019-02-08T03:55:58.105Z,97542.58
2019-02-08T04:01:03.586Z,97528.79
2019-02-08T04:06:01.279Z,97529.69
2019-02-08T04:10:59.230Z,97530.69
2019-02-08T04:15:55.551Z,97529.41
2019-02-08T04:20:54.520Z,97527.38
2019-02-08T04:25:53.716Z,97527.78
2019-02-08T04:30:49.982Z,97534.91
2019-02-08T04:35:47.072Z,97523.45
2019-02-08T04:40:48.506Z,97532.37
2019-02-08T04:45:44.982Z,97544.20
2019-02-08T04:50:43.934Z,97549.93
2019-02-08T04:55:43.999Z,97534.74
2019-02-08T05:00:41.064Z,97543.37
2019-02-08T05:05:37.471Z,97544.75
2019-02-08T05:10:36.170Z,97543.97
2019-02-08T05:15:32.987Z,97539.70
2019-02-08T05:20:29.778Z,97540.81
2019-02-08T05:25:31.966Z,97536.44
2019-02-08T05:30:38.415Z,97532.69
2019-02-08T05:35:37.824Z,97523.41
2019-02-08T05:40:38.909Z,97523.17
2019-02-08T05:45:36.466Z,97509.38
2019-02-08T05:50:38.054Z,97505.97
2019-02-08T05:55:43.228Z,97510.56
2019-02-08T06:01:00.002Z,97515.94
2019-02-08T06:05:57.799Z,97511.38
2019-02-08T06:10:53.833Z,97514.55
2019-02-08T06:15:50.822Z,97522.88
2019-02-08T06:20:51.149Z,97516.28
2019-02-08T06:25:49.527Z,97518.22
2019-02-08T06:30:45.531Z,97521.34
2019-02-08T06:35:42.297Z,97509.27
2019-02-08T06:40:42.245Z,97517.51
2019-02-08T06:45:38.740Z,97529.30
2019-02-08T06:50:34.632Z,97529.31
2019-02-08T06:55:30.697Z,97544.33
2019-02-08T07:00:39.277Z,97537.39
2019-02-08T07:06:08.238Z,97542.73
2019-02-08T07:11:26.033Z,97536.33
2019-02-08T07:16:43.841Z,97533.80
2019-02-08T07:22:16.930Z,97526.92
2019-02-08T07:27:24.285Z,97533.56
2019-02-08T07:32:30.958Z,97530.14
2019-02-08T07:37:41.568Z,97524.81
2019-02-08T07:42:58.563Z,97530.66
2019-02-08T07:48:07.203Z,97533.92
2019-02-08T07:53:34.474Z,97541.17
2019-02-08T07:58:40.508Z,97542.08
2019-02-08T08:04:01.239Z,97540.45
2019-02-08T08:09:12.021Z,97545.44
2019-02-08T08:14:27.949Z,97539.92
2019-02-08T08:19:44.176Z,97535.50
2019-02-08T08:25:06.712Z,97541.31
2019-02-08T08:30:28.410Z,97531.78
2019-02-08T08:36:08.978Z,97523.58
2019-02-08T08:42:35.028Z,97525.61
2019-02-08T08:47:52.692Z,97533.46
2019-02-08T08:53:36.604Z,97521.39
2019-02-08T08:59:44.846Z,97527.41
2019-02-08T09:05:57.128Z,97518.87
2019-02-08T09:11:40.450Z,97526.84
2019-02-08T09:17:45.149Z,97524.37
2019-02-08T09:24:11.464Z,97518.78
2019-02-08T09:29:57.694Z,97516.19
2019-02-08T09:36:02.766Z,97511.34
2019-02-08T09:41:43.911Z,97486.98
2019-02-08T09:47:44.979Z,97475.40
2019-02-08T09:53:36.828Z,97465.86
2019-02-08T09:59:45.176Z,97457.41
2019-02-08T10:06:07.179Z,97461.35
2019-02-08T10:12:03.715Z,97462.42
2019-02-08T10:18:18.348Z,97459.57
2019-02-08T10:23:53.847Z,97460.95
2019-02-08T10:30:33.977Z,97453.72
2019-02-08T10:36:56.605Z,97452.53
2019-02-08T10:42:49.140Z,97448.52
2019-02-08T10:48:39.723Z,97442.17
2019-02-08T10:55:32.931Z,97443.90
2019-02-08T11:16:01.716Z,97408.44
2019-02-08T11:41:03.404Z,97383.67
